createdAt,value
2018-08-20T02:29:09.692Z,983.48
2018-08-20T02:30:09.260Z,983.51
2018-08-20T02:31:09.370Z,983.50
2018-08-20T03:38:30.656Z,983.37
2018-08-20T04:00:27.826Z,983.47
2018-08-20T04:01:27.754Z,983.39
2018-08-20T04:02:27.751Z,983.40
2018-08-20T04:03:27.746Z,983.42
2018-08-20T04:04:27.714Z,983.46
2018-08-20T04:05:27.701Z,983.43
2018-08-20T04:06:27.694Z,983.44
2018-08-20T04:07:27.694Z,983.42
2018-08-20T04:08:27.681Z,983.44
2018-08-20T04:09:27.663Z,983.45
2018-08-20T04:10:27.649Z,983.47
2018-08-20T04:11:27.636Z,983.47
2018-08-20T04:12:27.638Z,983.49
2018-08-20T04:13:27.609Z,983.47
2018-08-20T04:14:27.643Z,983.53
2018-08-20T04:15:27.592Z,983.55
2018-08-20T04:16:27.579Z,983.49
2018-08-20T04:17:27.579Z,983.49
2018-08-20T04:18:27.564Z,983.47
2018-08-20T04:19:27.542Z,983.48
2018-08-20T04:20:27.532Z,983.47
2018-08-20T04:21:27.521Z,983.56
2018-08-20T04:22:27.559Z,983.55
2018-08-20T04:23:27.505Z,983.56
2018-08-20T04:24:27.502Z,983.61
2018-08-20T04:25:27.480Z,983.56
2018-08-20T04:26:27.463Z,983.57
2018-08-20T04:27:27.503Z,983.57
2018-08-20T04:28:27.445Z,983.53
2018-08-20T04:29:27.432Z,983.55
2018-08-20T04:30:27.434Z,983.55
2018-08-20T04:31:27.424Z,983.61
2018-08-20T04:32:27.430Z,983.54
2018-08-20T04:33:27.399Z,983.51
2018-08-20T04:34:27.390Z,983.59
2018-08-20T04:35:27.373Z,983.57
2018-08-20T04:36:27.402Z,983.56
2018-08-20T04:37:27.361Z,983.60
2018-08-20T04:38:27.336Z,983.59
2018-08-20T04:39:27.320Z,983.55
2018-08-20T04:40:27.312Z,983.63
2018-08-20T04:41:27.295Z,983.61
2018-08-20T04:42:27.314Z,983.55
2018-08-20T04:43:27.280Z,983.58
2018-08-20T04:44:27.265Z,983.57
2018-08-20T04:45:27.260Z,983.54
2018-08-20T04:46:27.245Z,983.56
2018-08-20T04:47:27.261Z,983.55
2018-08-20T04:48:27.219Z,983.55
2018-08-20T04:49:27.210Z,983.55
2018-08-20T04:50:27.366Z,983.54
2018-08-20T04:51:27.221Z,983.55
2018-08-20T04:52:27.197Z,983.51
2018-08-20T04:53:27.167Z,983.53
2018-08-20T04:54:27.157Z,983.52
2018-08-20T04:55:27.168Z,983.54
2018-08-20T04:56:27.128Z,983.54
2018-08-20T04:57:27.142Z,983.51
2018-08-20T04:58:27.118Z,983.56
2018-08-20T04:59:27.096Z,983.55
2018-08-20T05:00:27.089Z,983.57
2018-08-20T05:01:27.085Z,983.57
2018-08-20T05:02:27.089Z,983.57
2018-08-20T05:03:27.058Z,983.57
2018-08-20T05:04:27.054Z,983.53
2018-08-20T05:05:27.043Z,983.59
2018-08-20T05:06:27.015Z,983.57
2018-08-20T05:07:27.043Z,983.61
2018-08-20T05:08:26.995Z,983.59
2018-08-20T05:09:26.990Z,983.59
2018-08-20T05:10:26.978Z,983.59
2018-08-20T05:11:26.966Z,983.61
2018-08-20T05:12:26.947Z,983.60
2018-08-20T05:13:26.953Z,983.64
2018-08-20T05:14:26.927Z,983.60
2018-08-20T05:15:26.936Z,983.65
2018-08-20T05:16:26.945Z,983.64
2018-08-20T05:17:26.891Z,983.70
2018-08-20T05:18:26.909Z,983.67
2018-08-20T05:19:26.887Z,983.70
2018-08-20T05:20:26.884Z,983.71
2018-08-20T05:21:26.889Z,983.68
2018-08-20T05:22:26.835Z,983.71
2018-08-20T05:23:26.862Z,983.71
2018-08-20T05:24:26.828Z,983.71
2018-08-20T05:25:26.817Z,983.72
2018-08-20T05:26:26.794Z,983.68
2018-08-20T05:27:26.787Z,983.69
2018-08-20T05:28:26.788Z,983.72
2018-08-20T05:29:26.830Z,983.69
2018-08-20T05:30:26.752Z,983.70
2018-08-20T05:31:26.738Z,983.72
2018-08-20T05:32:26.725Z,983.66
2018-08-20T05:33:26.739Z,983.68
2018-08-20T05:34:26.726Z,983.70
2018-08-20T05:35:26.695Z,983.69
2018-08-20T05:36:26.685Z,983.65
2018-08-20T05:37:26.667Z,983.67
2018-08-20T05:38:26.681Z,983.68
2018-08-20T05:39:26.649Z,983.70
2018-08-20T05:40:26.653Z,983.71
2018-08-20T05:41:26.628Z,983.72
2018-08-20T05:42:26.611Z,983.67
2018-08-20T05:43:26.610Z,983.70
2018-08-20T05:44:26.586Z,983.74
2018-08-20T05:45:26.576Z,983.77
2018-08-20T05:46:26.565Z,983.77
2018-08-20T05:47:26.556Z,983.69
2018-08-20T05:48:26.568Z,983.76
2018-08-20T05:49:26.549Z,983.74
2018-08-20T05:50:26.543Z,983.74
2018-08-20T05:51:26.506Z,983.75
2018-08-20T05:52:26.501Z,983.70
2018-08-20T05:53:26.500Z,983.74
2018-08-20T05:54:26.473Z,983.71
2018-08-20T05:55:26.466Z,983.72
2018-08-20T05:56:26.458Z,983.75
2018-08-20T05:57:26.440Z,983.74
2018-08-20T05:58:26.444Z,983.77
2018-08-20T05:59:26.423Z,983.74
2018-08-20T06:00:26.406Z,983.78
2018-08-20T06:01:26.394Z,983.80
2018-08-20T06:02:26.388Z,983.83
2018-08-20T06:03:26.387Z,983.78
2018-08-20T06:04:26.360Z,983.85
2018-08-20T06:05:26.355Z,983.85
2018-08-20T06:06:26.340Z,983.83
2018-08-20T06:07:26.331Z,983.85
2018-08-20T06:08:26.327Z,983.84
2018-08-20T06:09:26.307Z,983.80
2018-08-20T06:10:26.292Z,983.84
2018-08-20T06:11:26.285Z,983.84
2018-08-20T06:12:26.272Z,983.87
2018-08-20T06:13:26.271Z,983.86
2018-08-20T06:14:26.254Z,983.92
2018-08-20T06:15:26.236Z,983.92
2018-08-20T06:16:26.231Z,983.94
2018-08-20T06:17:26.218Z,983.94
2018-08-20T06:18:26.218Z,983.91
2018-08-20T06:19:26.197Z,983.93
2018-08-20T06:20:26.183Z,983.92
2018-08-20T06:21:26.171Z,983.94
2018-08-20T06:22:26.170Z,984.00
2018-08-20T06:23:26.163Z,984.01
2018-08-20T06:24:26.136Z,983.98
2018-08-20T06:25:26.133Z,984.02
2018-08-20T06:26:26.118Z,984.08
2018-08-20T06:27:26.104Z,984.08
2018-08-20T06:28:26.109Z,984.03
2018-08-20T06:29:26.085Z,983.99
2018-08-20T06:30:26.070Z,984.06
2018-08-20T06:31:26.061Z,984.04
2018-08-20T06:32:26.051Z,984.04
2018-08-20T06:33:26.049Z,984.02
2018-08-20T06:34:26.027Z,984.00
2018-08-20T06:35:26.018Z,984.03
2018-08-20T06:36:26.003Z,984.08
2018-08-20T06:37:25.992Z,984.08
2018-08-20T06:38:25.990Z,984.02
2018-08-20T06:39:25.971Z,984.06
2018-08-20T06:40:25.956Z,984.07
2018-08-20T06:41:25.946Z,984.10
2018-08-20T06:42:25.936Z,984.13
2018-08-20T06:43:25.940Z,984.13
2018-08-20T06:44:25.915Z,984.10
2018-08-20T06:45:25.900Z,984.12
2018-08-20T06:46:25.900Z,984.15
2018-08-20T06:47:25.881Z,984.14
2018-08-20T06:48:25.881Z,984.17
2018-08-20T06:49:25.868Z,984.14
2018-08-20T06:50:25.849Z,984.05
2018-08-20T06:51:25.834Z,984.11
2018-08-20T06:52:25.825Z,984.09
2018-08-20T06:53:25.824Z,984.14
2018-08-20T06:54:25.814Z,984.15
2018-08-20T06:55:25.797Z,984.15
2018-08-20T06:56:25.781Z,984.19
2018-08-20T06:57:25.774Z,984.15
2018-08-20T06:58:25.776Z,984.14
2018-08-20T06:59:25.745Z,984.19
2018-08-20T07:00:25.734Z,984.18
2018-08-20T07:01:25.723Z,984.17
2018-08-20T07:02:25.715Z,984.16
2018-08-20T07:03:25.715Z,984.17
2018-08-20T07:04:25.692Z,984.14
2018-08-20T07:05:25.677Z,984.09
2018-08-20T07:06:25.722Z,984.09
2018-08-20T07:07:25.657Z,984.10
2018-08-20T07:08:25.660Z,984.12
2018-08-20T07:09:25.633Z,984.12
2018-08-20T07:10:25.623Z,984.15
2018-08-20T07:11:25.611Z,984.16
2018-08-20T07:12:25.599Z,984.16
2018-08-20T07:13:25.612Z,984.18
2018-08-20T07:14:25.579Z,984.17
2018-08-20T07:15:25.566Z,984.22
2018-08-20T07:16:25.556Z,984.19
2018-08-20T07:17:25.561Z,984.15
2018-08-20T07:18:25.536Z,984.20
2018-08-20T07:19:25.548Z,984.13
2018-08-20T07:20:25.513Z,984.16
2018-08-20T07:21:25.500Z,984.16
2018-08-20T07:22:25.491Z,984.19
2018-08-20T07:23:25.488Z,984.15
2018-08-20T07:24:25.477Z,984.17
2018-08-20T07:25:25.454Z,984.20
2018-08-20T07:26:25.443Z,984.20
2018-08-20T07:27:25.435Z,984.18
2018-08-20T07:28:25.425Z,984.24
2018-08-20T07:29:25.421Z,984.16
2018-08-20T07:30:25.402Z,984.17
2018-08-20T07:31:25.387Z,984.16
2018-08-20T07:32:25.377Z,984.17
2018-08-20T07:33:25.365Z,984.18
2018-08-20T07:34:25.458Z,984.19
2018-08-20T07:35:25.349Z,984.21
2018-08-20T07:36:25.333Z,984.21
2018-08-20T07:37:25.321Z,984.21
2018-08-20T07:38:25.309Z,984.19
2018-08-20T07:39:25.310Z,984.23
2018-08-20T07:40:25.287Z,984.25
2018-08-20T07:41:25.281Z,984.28
2018-08-20T07:42:25.308Z,984.28
2018-08-20T07:43:25.257Z,984.24
2018-08-20T07:44:25.267Z,984.23
2018-08-20T07:45:25.231Z,984.26
2018-08-20T07:46:25.219Z,984.25
2018-08-20T07:47:25.208Z,984.18
2018-08-20T07:48:25.198Z,984.21
2018-08-20T07:49:25.201Z,984.23
2018-08-20T07:50:25.201Z,984.26
2018-08-20T07:51:25.165Z,984.26
2018-08-20T07:52:25.154Z,984.24
2018-08-20T07:53:25.142Z,984.23
2018-08-20T07:54:25.144Z,984.28
2018-08-20T07:55:25.120Z,984.23
2018-08-20T07:56:25.110Z,984.26
2018-08-20T07:57:25.098Z,984.24
2018-08-20T07:58:25.095Z,984.26
2018-08-20T07:59:25.088Z,984.25
2018-08-20T08:00:25.067Z,984.28
2018-08-20T08:01:25.055Z,984.24
2018-08-20T08:02:25.045Z,984.24
2018-08-20T08:03:25.033Z,984.23
2018-08-20T08:04:25.037Z,984.24
2018-08-20T08:05:25.010Z,984.25
2018-08-20T08:06:25.000Z,984.22
2018-08-20T08:07:24.992Z,984.14
2018-08-20T08:08:24.977Z,984.17
2018-08-20T08:09:24.979Z,984.17
2018-08-20T08:10:24.954Z,984.18
2018-08-20T08:11:24.952Z,984.15
2018-08-20T08:12:24.932Z,984.15
2018-08-20T08:13:24.921Z,984.19
2018-08-20T08:14:24.926Z,984.18
2018-08-20T08:15:24.900Z,984.16
2018-08-20T08:16:24.889Z,984.14
2018-08-20T08:17:24.881Z,984.12
2018-08-20T08:18:24.872Z,984.11
2018-08-20T08:19:24.869Z,984.14
2018-08-20T08:20:24.879Z,984.08
2018-08-20T08:21:24.834Z,984.09
2018-08-20T08:22:24.822Z,984.08
2018-08-20T08:23:24.822Z,984.08
2018-08-20T08:24:24.817Z,984.07
2018-08-20T08:25:24.790Z,984.02
2018-08-20T08:26:24.790Z,984.09
2018-08-20T08:27:24.767Z,984.09
2018-08-20T08:28:24.762Z,984.06
2018-08-20T08:29:24.760Z,984.04
2018-08-20T08:30:24.736Z,984.05
2018-08-20T08:31:24.724Z,983.99
2018-08-20T08:32:24.715Z,984.03
2018-08-20T08:33:24.701Z,983.98
2018-08-20T08:34:24.702Z,983.91
2018-08-20T08:35:24.681Z,983.91
2018-08-20T08:36:24.670Z,983.87
2018-08-20T08:37:24.659Z,983.89
2018-08-20T08:38:24.646Z,983.86
2018-08-20T08:39:24.649Z,983.85
2018-08-20T08:40:24.625Z,983.86
2018-08-20T08:41:24.635Z,983.89
2018-08-20T08:42:24.605Z,983.85
2018-08-20T08:43:24.594Z,983.86
2018-08-20T08:44:24.594Z,983.85
2018-08-20T08:45:24.571Z,983.77
2018-08-20T08:46:24.562Z,983.77
2018-08-20T08:47:24.549Z,983.75
2018-08-20T08:48:24.535Z,983.76
2018-08-20T08:49:24.547Z,983.71
2018-08-20T08:50:24.517Z,983.72
2018-08-20T08:51:24.504Z,983.66
2018-08-20T08:52:24.495Z,983.68
2018-08-20T08:53:24.482Z,983.70
2018-08-20T08:54:24.485Z,983.66
2018-08-20T08:55:24.459Z,983.65
2018-08-20T08:56:24.449Z,983.65
2018-08-20T08:57:24.439Z,983.62
2018-08-20T08:58:24.426Z,983.62
2018-08-20T08:59:24.433Z,983.65
2018-08-20T09:00:24.455Z,983.59
2018-08-20T09:01:24.395Z,983.65
2018-08-20T09:02:24.387Z,983.65
2018-08-20T09:03:24.377Z,983.64
2018-08-20T09:04:24.372Z,983.65
2018-08-20T09:05:24.349Z,983.63
2018-08-20T09:06:24.341Z,983.63
2018-08-20T09:07:24.417Z,983.65
2018-08-20T09:08:24.317Z,983.63
2018-08-20T09:09:24.321Z,983.65
2018-08-20T09:10:24.295Z,983.63
2018-08-20T09:11:24.285Z,983.65
2018-08-20T09:12:24.274Z,983.64
2018-08-20T09:13:24.274Z,983.60
2018-08-20T09:14:24.270Z,983.63
2018-08-20T09:15:24.243Z,983.64
2018-08-20T09:16:24.232Z,983.64
2018-08-20T09:17:24.222Z,983.62
2018-08-20T09:18:24.255Z,983.66
2018-08-20T09:19:24.221Z,983.65
2018-08-20T09:20:24.186Z,983.65
2018-08-20T09:21:24.181Z,983.61
2018-08-20T09:22:24.165Z,983.65
2018-08-20T09:23:24.153Z,983.62
2018-08-20T09:24:24.142Z,983.59
2018-08-20T09:25:24.144Z,983.59
2018-08-20T09:26:24.119Z,983.57
2018-08-20T09:27:24.110Z,983.53
2018-08-20T09:28:24.098Z,983.56
2018-08-20T09:29:24.085Z,983.56
2018-08-20T09:30:24.084Z,983.56
2018-08-20T09:31:24.066Z,983.52
2018-08-20T09:32:24.141Z,983.54
2018-08-20T09:33:24.043Z,983.49
2018-08-20T09:34:24.034Z,983.48
2018-08-20T09:35:24.032Z,983.46
2018-08-20T09:36:24.010Z,983.50
2018-08-20T09:37:24.001Z,983.43
2018-08-20T09:38:24.127Z,983.44
2018-08-20T09:39:23.977Z,983.43
2018-08-20T09:40:23.977Z,983.49
2018-08-20T09:41:23.954Z,983.45
2018-08-20T09:42:23.944Z,983.40
2018-08-20T09:43:23.932Z,983.39
2018-08-20T09:44:23.920Z,983.38
2018-08-20T09:45:23.924Z,983.38
2018-08-20T09:46:23.900Z,983.39
2018-08-20T09:47:23.888Z,983.39
2018-08-20T09:48:23.879Z,983.39
2018-08-20T09:49:23.871Z,983.33
2018-08-20T09:50:23.878Z,983.34
2018-08-20T09:51:23.845Z,983.30
2018-08-20T09:52:23.852Z,983.28
2018-08-20T09:53:23.909Z,983.28
2018-08-20T09:54:23.812Z,983.27
2018-08-20T09:55:23.814Z,983.24
2018-08-20T09:56:23.790Z,983.34
2018-08-20T09:57:23.779Z,983.24
2018-08-20T09:58:23.771Z,983.30
2018-08-20T09:59:23.764Z,983.30
2018-08-20T10:00:23.757Z,983.31
2018-08-20T10:01:23.734Z,983.30
2018-08-20T10:02:23.722Z,983.28
2018-08-20T10:03:23.724Z,983.28
2018-08-20T10:04:23.704Z,983.31
2018-08-20T10:05:23.718Z,983.33
2018-08-20T10:06:23.680Z,983.36
2018-08-20T10:07:23.731Z,983.26
2018-08-20T10:08:23.676Z,983.28
2018-08-20T10:09:23.649Z,983.29
2018-08-20T10:10:23.648Z,983.33
2018-08-20T10:11:23.626Z,983.39
2018-08-20T10:12:23.619Z,983.34
2018-08-20T10:13:23.605Z,983.42
2018-08-20T10:14:23.593Z,983.40
2018-08-20T10:15:23.595Z,983.44
2018-08-20T10:16:23.572Z,983.46
2018-08-20T10:17:23.559Z,983.45
2018-08-20T10:18:23.574Z,983.42
2018-08-20T10:19:23.539Z,983.45
2018-08-20T10:20:23.540Z,983.50
2018-08-20T10:21:23.515Z,983.51
2018-08-20T10:22:23.504Z,983.54
2018-08-20T10:23:23.495Z,983.58
2018-08-20T10:24:23.482Z,983.59
2018-08-20T10:25:26.343Z,983.58
2018-08-20T10:26:24.267Z,983.58
2018-08-20T10:27:23.452Z,983.64
2018-08-20T10:28:23.439Z,983.63
2018-08-20T10:29:23.430Z,983.61
2018-08-20T10:30:23.480Z,983.62
2018-08-20T10:31:23.405Z,983.62
2018-08-20T10:32:23.402Z,983.65
2018-08-20T10:33:23.385Z,983.64
2018-08-20T10:34:23.466Z,983.63
2018-08-20T10:35:23.386Z,983.63
2018-08-20T10:36:23.360Z,983.68
2018-08-20T10:37:23.340Z,983.67
2018-08-20T10:38:23.336Z,983.66
2018-08-20T10:39:23.320Z,983.70
2018-08-20T10:40:23.321Z,983.70
2018-08-20T10:41:23.297Z,983.70
2018-08-20T10:42:23.283Z,983.72
2018-08-20T10:43:23.278Z,983.79
2018-08-20T10:44:23.268Z,983.74
2018-08-20T10:45:23.264Z,983.76
2018-08-20T10:46:23.244Z,983.74
2018-08-20T10:47:23.233Z,983.75
2018-08-20T10:48:23.221Z,983.74
2018-08-20T10:49:23.211Z,983.74
2018-08-20T10:50:23.207Z,983.72
2018-08-20T10:51:23.189Z,983.72
2018-08-20T10:52:23.175Z,983.71
2018-08-20T10:53:23.165Z,983.75
2018-08-20T10:54:23.153Z,983.70
2018-08-20T10:55:23.154Z,983.73
2018-08-20T10:56:23.193Z,983.75
2018-08-20T10:57:23.122Z,983.84
2018-08-20T10:58:23.109Z,983.79
2018-08-20T10:59:23.099Z,983.76
2018-08-20T11:00:23.098Z,983.80
2018-08-20T11:01:23.076Z,983.81
2018-08-20T11:02:23.069Z,983.80
2018-08-20T11:03:23.055Z,983.83
2018-08-20T11:04:23.045Z,983.83
2018-08-20T11:05:23.052Z,983.83
2018-08-20T11:06:23.022Z,983.83
2018-08-20T11:07:23.023Z,983.90
2018-08-20T11:08:23.001Z,983.81
2018-08-20T11:09:22.988Z,983.81
2018-08-20T11:10:22.986Z,983.81
2018-08-20T11:11:22.970Z,983.87
2018-08-20T11:12:22.959Z,983.84
2018-08-20T11:13:22.945Z,983.84
2018-08-20T11:14:22.936Z,983.87
2018-08-20T11:15:22.938Z,983.81
2018-08-20T11:16:22.913Z,983.86
2018-08-20T11:17:22.903Z,983.89
2018-08-20T11:18:22.986Z,983.88
2018-08-20T11:19:22.883Z,983.96
2018-08-20T11:20:22.882Z,983.92
2018-08-20T11:21:22.857Z,983.88
2018-08-20T11:22:22.846Z,983.89
2018-08-20T11:23:22.835Z,983.86
2018-08-20T11:24:22.823Z,983.86
2018-08-20T11:25:22.813Z,983.89
2018-08-20T11:26:22.815Z,983.89
2018-08-20T11:27:22.792Z,983.90
2018-08-20T11:28:22.779Z,983.90
2018-08-20T11:29:22.772Z,983.94
2018-08-20T11:30:22.862Z,983.93
2018-08-20T11:31:22.763Z,983.94
2018-08-20T11:32:22.737Z,983.92
2018-08-20T11:33:22.725Z,983.91
2018-08-20T11:34:22.714Z,983.97
2018-08-20T11:35:22.702Z,983.95
2018-08-20T11:36:22.702Z,983.93
2018-08-20T11:37:22.680Z,983.98
2018-08-20T11:38:22.671Z,983.95
2018-08-20T11:39:22.662Z,983.94
2018-08-20T11:40:22.649Z,983.93
2018-08-20T11:41:22.646Z,983.93
2018-08-20T11:42:22.640Z,983.91
2018-08-20T11:43:22.643Z,983.93
2018-08-20T11:44:22.609Z,983.92
2018-08-20T11:45:22.595Z,983.95
2018-08-20T11:46:22.596Z,983.97
2018-08-20T11:47:22.576Z,983.94
2018-08-20T11:48:22.561Z,983.97
2018-08-20T11:49:22.548Z,983.90
2018-08-20T11:50:22.543Z,983.97
2018-08-20T11:51:22.538Z,983.91
2018-08-20T11:52:22.516Z,983.91
2018-08-20T11:53:22.507Z,983.95
2018-08-20T11:54:22.518Z,983.88
2018-08-20T11:55:22.486Z,983.92
2018-08-20T11:56:22.487Z,983.91
2018-08-20T11:57:22.475Z,983.92
2018-08-20T11:58:22.460Z,983.97
2018-08-20T11:59:22.438Z,984.00
2018-08-20T12:00:22.431Z,983.97
2018-08-20T12:01:22.435Z,983.95
2018-08-20T12:02:22.449Z,983.94
2018-08-20T12:03:22.494Z,983.98
2018-08-20T12:04:22.388Z,984.00
2018-08-20T12:05:22.416Z,983.98
2018-08-20T12:06:22.373Z,984.02
2018-08-20T12:07:22.486Z,984.02
2018-08-20T12:08:22.343Z,984.02
2018-08-20T12:09:22.328Z,984.06
2018-08-20T12:10:22.334Z,984.05
2018-08-20T12:11:22.318Z,983.99
2018-08-20T12:12:22.295Z,984.03
2018-08-20T12:13:22.284Z,983.98
2018-08-20T12:14:22.318Z,983.98
2018-08-20T12:15:22.263Z,984.01
2018-08-20T12:16:22.288Z,984.01
2018-08-20T12:17:22.365Z,984.02
2018-08-20T12:18:22.230Z,984.00
2018-08-20T12:19:22.217Z,984.01
2018-08-20T12:20:22.227Z,984.03
2018-08-20T12:21:22.210Z,984.05
2018-08-20T12:22:22.213Z,983.99
2018-08-20T12:23:22.176Z,984.05
2018-08-20T12:24:22.165Z,983.99
2018-08-20T12:25:22.274Z,984.02
2018-08-20T12:26:22.153Z,983.98
2018-08-20T12:27:22.130Z,984.01
2018-08-20T12:28:22.443Z,984.01
2018-08-20T12:29:22.139Z,984.00
2018-08-20T12:30:22.169Z,983.99
2018-08-20T12:31:22.102Z,984.05
2018-08-20T12:32:22.169Z,984.00
2018-08-20T12:33:22.131Z,984.01
2018-08-20T12:34:22.099Z,984.03
2018-08-20T12:35:22.042Z,984.04
2018-08-20T12:36:22.046Z,984.02
2018-08-20T12:37:22.020Z,984.11
2018-08-20T12:38:22.105Z,984.05
2018-08-20T12:39:21.999Z,984.04
2018-08-20T12:40:22.108Z,984.01
2018-08-20T12:41:22.109Z,984.04
2018-08-20T12:42:21.969Z,984.02
2018-08-20T12:43:21.957Z,983.98
2018-08-20T12:44:21.949Z,984.01
2018-08-20T12:45:21.935Z,983.98
2018-08-20T12:46:21.937Z,983.97
2018-08-20T12:47:21.910Z,983.97
2018-08-20T12:48:21.900Z,983.96
2018-08-20T12:49:21.893Z,983.98
2018-08-20T12:50:21.878Z,983.89
2018-08-20T12:51:21.880Z,983.91
2018-08-20T12:52:21.857Z,983.96
2018-08-20T12:53:21.849Z,983.94
2018-08-20T12:54:21.834Z,983.93
2018-08-20T12:55:21.828Z,983.90
2018-08-20T12:56:21.832Z,983.88
2018-08-20T12:57:21.805Z,983.87
2018-08-20T12:58:21.790Z,983.90
2018-08-20T12:59:21.784Z,983.84
2018-08-20T13:00:21.784Z,983.88
2018-08-20T13:01:21.770Z,983.85
2018-08-20T13:02:21.748Z,983.89
2018-08-20T13:03:21.734Z,983.84
2018-08-20T13:04:21.723Z,983.86
2018-08-20T13:05:21.716Z,983.82
2018-08-20T13:06:21.714Z,983.83
2018-08-20T13:07:21.694Z,983.86
2018-08-20T13:08:21.682Z,983.82
2018-08-20T13:09:21.667Z,983.81
2018-08-20T13:10:21.657Z,983.88
2018-08-20T13:11:21.673Z,983.82
2018-08-20T13:12:21.635Z,983.82
2018-08-20T13:13:21.625Z,983.85
2018-08-20T13:14:21.631Z,983.78
2018-08-20T13:15:21.605Z,983.74
2018-08-20T13:16:21.696Z,983.71
2018-08-20T13:17:21.583Z,983.69
2018-08-20T13:18:21.575Z,983.71
2018-08-20T13:19:21.563Z,983.69
2018-08-20T13:20:21.548Z,983.71
2018-08-20T13:21:21.551Z,983.65
2018-08-20T13:22:21.526Z,983.67
2018-08-20T13:23:21.520Z,983.74
2018-08-20T13:24:21.510Z,983.64
2018-08-20T13:25:21.501Z,983.66
2018-08-20T13:26:21.512Z,983.68
2018-08-20T13:27:21.473Z,983.65
2018-08-20T13:28:21.464Z,983.69
2018-08-20T13:29:21.452Z,983.70
2018-08-20T13:30:21.441Z,983.74
2018-08-20T13:31:21.428Z,983.69
2018-08-20T13:32:21.428Z,983.71
2018-08-20T13:33:21.410Z,983.71
2018-08-20T13:34:21.396Z,983.71
2018-08-20T13:35:21.383Z,983.72
2018-08-20T13:36:21.375Z,983.69
2018-08-20T13:37:21.393Z,983.68
2018-08-20T13:38:21.354Z,983.69
2018-08-20T13:39:21.341Z,983.68
2018-08-20T13:40:21.334Z,983.72
2018-08-20T13:41:21.318Z,983.67
2018-08-20T13:42:21.318Z,983.68
2018-08-20T13:43:21.297Z,983.65
2018-08-20T13:44:21.286Z,983.66
2018-08-20T13:45:21.275Z,983.66
2018-08-20T13:46:21.266Z,983.65
2018-08-20T13:47:21.266Z,983.62
2018-08-20T13:48:21.243Z,983.68
2018-08-20T13:49:21.231Z,983.65
2018-08-20T13:50:21.219Z,983.63
2018-08-20T13:51:21.208Z,983.61
2018-08-20T13:52:21.209Z,983.64
2018-08-20T13:53:21.187Z,983.63
2018-08-20T13:54:21.179Z,983.65
2018-08-20T13:55:21.165Z,983.57
2018-08-20T13:56:21.158Z,983.54
2018-08-20T13:57:21.184Z,983.51
2018-08-20T13:58:21.132Z,983.51
2018-08-20T13:59:21.121Z,983.52
2018-08-20T14:00:21.116Z,983.57
2018-08-20T14:01:21.103Z,983.52
2018-08-20T14:02:21.111Z,983.56
2018-08-20T14:03:21.119Z,983.58
2018-08-20T14:04:21.067Z,983.60
2018-08-20T14:05:21.060Z,983.58
2018-08-20T14:06:21.044Z,983.57
2018-08-20T14:07:21.058Z,983.59
2018-08-20T14:08:21.027Z,983.57
2018-08-20T14:09:21.152Z,983.60
2018-08-20T14:10:21.170Z,983.61
2018-08-20T14:11:20.991Z,983.63
2018-08-20T14:12:20.999Z,983.55
2018-08-20T14:13:20.993Z,983.55
2018-08-20T14:14:20.956Z,983.56
2018-08-20T14:15:20.946Z,983.55
2018-08-20T14:16:20.939Z,983.57
2018-08-20T14:17:20.940Z,983.57
2018-08-20T14:18:21.042Z,983.56
2018-08-20T14:19:20.903Z,983.57
2018-08-20T14:20:20.891Z,983.58
2018-08-20T14:21:20.880Z,983.57
2018-08-20T14:22:20.878Z,983.62
2018-08-20T14:23:20.871Z,983.62
2018-08-20T14:24:20.850Z,983.61
2018-08-20T14:25:20.837Z,983.68
2018-08-20T14:26:20.830Z,983.69
2018-08-20T14:27:20.830Z,983.67
2018-08-20T14:28:20.802Z,983.68
2018-08-20T14:29:20.911Z,983.67
2018-08-20T14:30:20.860Z,983.69
2018-08-20T14:31:20.768Z,983.67
2018-08-20T14:32:20.768Z,983.61
2018-08-20T14:33:20.757Z,983.61
2018-08-20T14:34:20.740Z,983.65
2018-08-20T14:35:20.728Z,983.61
2018-08-20T14:36:20.719Z,983.59
2018-08-20T14:37:20.745Z,983.60
2018-08-20T14:38:20.694Z,983.60
2018-08-20T14:39:20.687Z,983.62
2018-08-20T14:40:20.671Z,983.59
2018-08-20T14:41:20.661Z,983.61
2018-08-20T14:42:20.659Z,983.60
2018-08-20T14:43:20.637Z,983.60
2018-08-20T14:44:20.628Z,983.57
2018-08-20T14:45:20.618Z,983.53
2018-08-20T14:46:20.609Z,983.56
2018-08-20T14:47:20.605Z,983.60
2018-08-20T14:48:20.590Z,983.58
2018-08-20T14:49:20.580Z,983.55
2018-08-20T14:50:20.562Z,983.61
2018-08-20T14:51:20.788Z,983.57
2018-08-20T14:52:20.561Z,983.62
2018-08-20T14:53:20.558Z,983.58
2018-08-20T14:54:20.518Z,983.59
2018-08-20T14:55:20.564Z,983.61
2018-08-20T14:56:20.496Z,983.63
2018-08-20T14:57:20.508Z,983.64
2018-08-20T14:58:20.473Z,983.61
2018-08-20T14:59:20.460Z,983.60
2018-08-20T15:00:20.456Z,983.62
2018-08-20T15:01:20.445Z,983.58
2018-08-20T15:02:20.462Z,983.61
2018-08-20T15:03:20.419Z,983.59
2018-08-20T15:04:20.411Z,983.58
2018-08-20T15:05:20.395Z,983.58
2018-08-20T15:06:20.384Z,983.58
2018-08-20T15:07:20.384Z,983.56
2018-08-20T15:08:20.364Z,983.60
2018-08-20T15:09:20.522Z,983.63
2018-08-20T15:10:20.340Z,983.60
2018-08-20T15:11:20.329Z,983.61
2018-08-20T15:12:20.333Z,983.59
2018-08-20T15:13:20.311Z,983.61
2018-08-20T15:14:20.299Z,983.58
2018-08-20T15:15:20.497Z,983.57
2018-08-20T15:16:20.274Z,983.57
2018-08-20T15:17:20.277Z,983.54
2018-08-20T15:18:20.252Z,983.58
2018-08-20T15:19:20.242Z,983.53
2018-08-20T15:20:20.236Z,983.56
2018-08-20T15:21:20.224Z,983.53
2018-08-20T15:22:20.222Z,983.54
2018-08-20T15:23:20.205Z,983.54
2018-08-20T15:24:20.231Z,983.56
2018-08-20T15:25:20.302Z,983.55
2018-08-20T15:26:20.292Z,983.57
2018-08-20T15:27:20.314Z,983.53
2018-08-20T15:28:20.224Z,983.61
2018-08-20T15:29:20.247Z,983.59
2018-08-20T15:30:20.122Z,983.52
2018-08-20T15:31:20.124Z,983.61
2018-08-20T15:32:20.152Z,983.53
2018-08-20T15:33:20.200Z,983.54
2018-08-20T15:34:20.080Z,983.55
2018-08-20T15:35:20.074Z,983.56
2018-08-20T15:36:20.055Z,983.52
2018-08-20T15:37:20.044Z,983.54
2018-08-20T15:38:20.048Z,983.58
2018-08-20T15:39:20.071Z,983.54
2018-08-20T15:40:20.011Z,983.56
2018-08-20T15:41:20.005Z,983.52
2018-08-20T15:42:19.990Z,983.59
2018-08-20T15:43:19.992Z,983.59
2018-08-20T15:44:19.984Z,983.60
2018-08-20T15:45:19.956Z,983.60
2018-08-20T15:46:20.033Z,983.58
2018-08-20T15:47:19.937Z,983.57
2018-08-20T15:48:19.993Z,983.58
2018-08-20T15:49:19.927Z,983.63
2018-08-20T15:50:19.917Z,983.59
2018-08-20T15:51:22.458Z,983.60
2018-08-20T15:52:19.884Z,983.57
2018-08-20T15:53:20.067Z,983.59
2018-08-20T15:54:19.872Z,983.60
2018-08-20T15:55:19.847Z,983.57
2018-08-20T15:56:19.834Z,983.57
2018-08-20T15:57:19.828Z,983.57
2018-08-20T15:58:19.831Z,983.60
2018-08-20T15:59:19.803Z,983.58
2018-08-20T16:00:19.799Z,983.59
2018-08-20T16:01:19.782Z,983.60
2018-08-20T16:02:19.769Z,983.56
2018-08-20T16:03:19.772Z,983.54
2018-08-20T16:04:19.748Z,983.53
2018-08-20T16:05:19.745Z,983.55
2018-08-20T16:06:19.727Z,983.54
2018-08-20T16:07:19.714Z,983.53
2018-08-20T16:08:19.725Z,983.52
2018-08-20T16:09:19.739Z,983.56
2018-08-20T16:10:19.713Z,983.57
2018-08-20T16:11:19.799Z,983.53
2018-08-20T16:12:19.660Z,983.60
2018-08-20T16:13:19.669Z,983.53
2018-08-20T16:14:19.640Z,983.57
2018-08-20T16:15:19.689Z,983.58
2018-08-20T16:16:19.618Z,983.58
2018-08-20T16:17:19.608Z,983.58
2018-08-20T16:18:19.604Z,983.55
2018-08-20T16:19:19.585Z,983.58
2018-08-20T16:20:19.573Z,983.61
2018-08-20T16:21:19.568Z,983.62
2018-08-20T16:22:19.560Z,983.63
2018-08-20T16:23:19.554Z,983.60
2018-08-20T16:24:19.527Z,983.62